createdAt,value
2022-11-27T00:01:45.217Z,90.82
2022-11-27T00:04:14.741Z,90.79
2022-11-27T00:06:44.299Z,91.07
2022-11-27T00:09:15.777Z,91.06
2022-11-27T00:11:45.737Z,90.50
2022-11-27T00:14:16.838Z,90.83
2022-11-27T00:16:47.268Z,90.84
2022-11-27T00:19:16.813Z,91.20
2022-11-27T00:21:45.877Z,90.68
2022-11-27T00:24:15.161Z,90.74
2022-11-27T00:26:44.226Z,90.77
2022-11-27T00:29:13.546Z,91.07
2022-11-27T00:31:42.712Z,91.07
2022-11-27T00:34:13.693Z,90.79
2022-11-27T00:36:46.626Z,90.75
2022-11-27T00:39:17.588Z,90.64
2022-11-27T00:41:46.959Z,90.41
2022-11-27T00:44:16.439Z,90.42
2022-11-27T00:46:45.768Z,90.55
2022-11-27T00:49:17.476Z,90.60
2022-11-27T00:51:46.586Z,90.72
2022-11-27T00:54:16.030Z,91.01
2022-11-27T00:56:45.120Z,91.46
2022-11-27T00:59:14.421Z,91.34
2022-11-27T01:01:45.058Z,90.97
2022-11-27T01:04:18.090Z,90.87
2022-11-27T01:06:47.386Z,91.00
2022-11-27T01:09:17.701Z,90.90
2022-11-27T01:11:46.948Z,90.58
2022-11-27T01:14:18.723Z,90.41
2022-11-27T01:16:47.993Z,89.71
2022-11-27T01:19:19.501Z,90.30
2022-11-27T01:21:49.098Z,89.95
2022-11-27T01:24:18.911Z,89.89
2022-11-27T01:26:48.106Z,90.04
2022-11-27T01:29:17.537Z,89.85
2022-11-27T01:31:46.658Z,89.59
2022-11-27T01:34:19.113Z,89.42
2022-11-27T01:36:48.095Z,89.32
2022-11-27T01:39:19.355Z,89.77
2022-11-27T01:41:49.984Z,89.72
2022-11-27T01:44:51.200Z,89.87
2022-11-27T01:47:35.873Z,90.93
2022-11-27T01:50:20.471Z,90.62
2022-11-27T01:52:53.273Z,90.66
2022-11-27T01:55:31.819Z,90.80
2022-11-27T01:58:05.664Z,90.72
2022-11-27T02:00:35.522Z,90.49
2022-11-27T02:03:04.761Z,90.61
2022-11-27T02:05:35.522Z,91.04
2022-11-27T02:08:10.617Z,91.01
2022-11-27T02:10:48.421Z,90.83
2022-11-27T02:13:24.401Z,91.00
2022-11-27T02:15:59.630Z,90.61
2022-11-27T02:18:37.763Z,90.11
2022-11-27T02:21:18.881Z,89.86
2022-11-27T02:24:17.906Z,89.88
2022-11-27T02:27:28.913Z,89.41
2022-11-27T02:30:02.608Z,89.16
2022-11-27T02:32:37.314Z,89.01
2022-11-27T02:35:13.965Z,89.76
2022-11-27T02:37:48.679Z,90.04
2022-11-27T02:40:26.177Z,90.07
2022-11-27T02:43:01.312Z,89.66
2022-11-27T02:45:35.848Z,89.75
2022-11-27T02:48:06.214Z,90.16
2022-11-27T02:50:38.407Z,90.60
2022-11-27T02:53:14.076Z,90.70
2022-11-27T02:55:46.478Z,90.65
2022-11-27T02:58:19.146Z,90.59
2022-11-27T03:00:51.087Z,90.75
2022-11-27T03:03:25.891Z,90.83
2022-11-27T03:06:02.098Z,90.86
2022-11-27T03:08:37.175Z,90.94
2022-11-27T03:11:08.808Z,90.17
2022-11-27T03:13:43.375Z,90.07
2022-11-27T03:16:19.405Z,90.40
2022-11-27T03:19:00.913Z,90.13
2022-11-27T03:21:35.869Z,90.53
2022-11-27T03:24:05.764Z,90.31
2022-11-27T03:26:34.819Z,90.14
2022-11-27T03:29:08.817Z,90.22
2022-11-27T03:36:51.579Z,90.15
2022-11-27T03:39:24.676Z,90.07
2022-11-27T03:42:03.140Z,89.76
2022-11-27T03:44:41.327Z,89.89
2022-11-27T03:47:19.536Z,90.12
2022-11-27T03:50:03.756Z,90.21
2022-11-27T03:52:44.288Z,90.40
2022-11-27T03:55:18.686Z,90.73
2022-11-27T03:57:56.816Z,90.37
2022-11-27T04:00:26.317Z,91.00
2022-11-27T04:02:55.816Z,90.57
2022-11-27T04:05:25.132Z,90.43
2022-11-27T04:07:55.882Z,90.47
2022-11-27T04:10:25.135Z,90.83
2022-11-27T04:12:54.482Z,90.45
2022-11-27T04:15:23.590Z,91.16
2022-11-27T04:17:52.977Z,91.21
2022-11-27T04:20:22.008Z,91.09
2022-11-27T04:22:51.453Z,91.29
2022-11-27T04:25:22.174Z,90.97
2022-11-27T04:27:52.144Z,90.86
2022-11-27T04:30:21.677Z,91.00
2022-11-27T04:32:51.102Z,90.55
2022-11-27T04:35:20.232Z,90.48
2022-11-27T04:37:49.663Z,90.73
2022-11-27T04:40:19.080Z,90.65
2022-11-27T04:42:50.748Z,91.13
2022-11-27T04:45:19.999Z,91.00
2022-11-27T04:47:49.404Z,90.85
2022-11-27T04:50:18.985Z,90.76
2022-11-27T04:52:48.444Z,90.72
2022-11-27T04:55:17.547Z,90.97
2022-11-27T04:57:48.406Z,91.08
2022-11-27T05:00:18.500Z,91.02
2022-11-27T05:02:47.869Z,91.90
2022-11-27T05:05:17.462Z,92.38
2022-11-27T05:07:46.947Z,92.26
2022-11-27T05:10:16.185Z,91.75
2022-11-27T05:12:45.705Z,91.66
2022-11-27T05:15:16.115Z,91.44
2022-11-27T05:17:45.473Z,91.21
2022-11-27T05:20:14.569Z,90.73
2022-11-27T05:22:44.270Z,90.86
2022-11-27T05:25:13.353Z,90.59
2022-11-27T05:27:42.964Z,90.19
2022-11-27T05:30:12.517Z,90.30
2022-11-27T05:32:43.156Z,89.68
2022-11-27T05:35:12.298Z,90.10
2022-11-27T05:37:41.723Z,89.41
2022-11-27T05:40:11.368Z,88.89
2022-11-27T05:42:40.704Z,88.62
2022-11-27T05:45:10.845Z,88.43
2022-11-27T05:47:40.335Z,88.59
2022-11-27T05:50:11.556Z,88.76
2022-11-27T05:52:40.834Z,88.88
2022-11-27T05:55:10.904Z,88.25
2022-11-27T05:57:40.498Z,87.48
2022-11-27T06:00:11.319Z,87.56
2022-11-27T06:02:40.839Z,87.82
2022-11-27T06:05:11.865Z,87.78
2022-11-27T06:07:41.235Z,87.70
2022-11-27T06:10:10.960Z,87.62
2022-11-27T06:12:40.307Z,88.12
2022-11-27T06:15:10.247Z,88.33
2022-11-27T06:17:39.560Z,88.83
2022-11-27T06:20:11.119Z,89.45
2022-11-27T06:22:40.427Z,90.11
2022-11-27T06:25:10.168Z,91.12
2022-11-27T06:27:39.680Z,92.10
2022-11-27T06:30:10.213Z,90.65
2022-11-27T06:32:39.810Z,92.08
2022-11-27T06:35:11.162Z,91.96
2022-11-27T06:37:40.717Z,91.13
2022-11-27T06:40:10.837Z,92.00
2022-11-27T06:42:40.266Z,91.16
2022-11-27T06:45:10.435Z,90.64
2022-11-27T06:47:39.782Z,91.19
2022-11-27T06:50:11.352Z,91.04
2022-11-27T06:52:40.953Z,90.68
2022-11-27T06:55:10.487Z,90.81
2022-11-27T06:57:40.079Z,90.52
2022-11-27T07:00:10.265Z,90.93
2022-11-27T07:02:39.755Z,92.48
2022-11-27T07:05:09.548Z,92.83
2022-11-27T07:07:43.800Z,91.77
2022-11-27T07:10:13.600Z,92.03
2022-11-27T07:12:42.960Z,92.28
2022-11-27T07:15:12.301Z,92.28
2022-11-27T07:17:41.929Z,92.28
2022-11-27T07:20:11.765Z,92.37
2022-11-27T07:22:42.561Z,92.64
2022-11-27T07:25:11.969Z,92.86
2022-11-27T07:27:41.526Z,93.90
2022-11-27T07:30:11.579Z,94.71
2022-11-27T07:32:41.130Z,93.88
2022-11-27T07:35:10.768Z,94.27
2022-11-27T07:37:41.677Z,93.41
2022-11-27T07:40:11.149Z,93.25
2022-11-27T07:42:40.490Z,93.23
2022-11-27T07:45:10.670Z,92.71
2022-11-27T07:47:40.796Z,92.73
2022-11-27T07:50:11.171Z,92.64
2022-11-27T07:52:42.455Z,93.03
2022-11-27T07:55:11.898Z,93.23
2022-11-27T07:57:42.430Z,92.93
2022-11-27T08:00:12.455Z,93.34
2022-11-27T08:02:42.221Z,93.78
2022-11-27T08:05:13.213Z,94.21
2022-11-27T08:07:44.217Z,94.49
2022-11-27T08:10:13.502Z,94.46
2022-11-27T08:12:42.850Z,94.25
2022-11-27T08:15:12.930Z,93.91
2022-11-27T08:17:42.358Z,93.48
2022-11-27T08:20:11.954Z,93.01
2022-11-27T08:22:41.286Z,92.41
2022-11-27T08:25:11.990Z,92.53
2022-11-27T08:27:41.489Z,92.79
2022-11-27T08:30:11.693Z,92.89
2022-11-27T08:32:41.878Z,93.19
2022-11-27T08:35:12.596Z,92.61
2022-11-27T08:37:42.106Z,92.10
2022-11-27T08:40:13.482Z,93.06
2022-11-27T08:42:43.129Z,92.97
2022-11-27T08:45:12.440Z,92.58
2022-11-27T08:47:43.455Z,91.90
2022-11-27T08:50:12.848Z,91.59
2022-11-27T08:52:42.124Z,91.33
2022-11-27T08:55:12.800Z,90.57
2022-11-27T08:57:42.128Z,90.97
2022-11-27T09:00:13.127Z,90.02
2022-11-27T09:02:42.444Z,89.46
2022-11-27T09:05:12.388Z,89.44
2022-11-27T09:07:42.120Z,89.85
2022-11-27T09:10:12.935Z,89.31
2022-11-27T09:12:43.661Z,88.76
2022-11-27T09:15:13.598Z,88.82
2022-11-27T09:17:43.163Z,89.10
2022-11-27T09:20:14.322Z,88.98
2022-11-27T09:22:43.721Z,88.78
2022-11-27T09:25:14.178Z,87.49
2022-11-27T09:27:43.463Z,88.44
2022-11-27T09:30:13.604Z,87.18
2022-11-27T09:32:43.090Z,86.59
2022-11-27T09:35:12.143Z,85.97
2022-11-27T09:37:41.577Z,84.62
2022-11-27T09:40:16.989Z,85.04
2022-11-27T09:42:54.901Z,84.49
2022-11-27T09:45:25.473Z,84.70
2022-11-27T09:47:57.621Z,84.31
2022-11-27T09:50:30.604Z,84.74
2022-11-27T09:53:05.316Z,84.58
2022-11-27T09:55:41.677Z,85.06
2022-11-27T09:58:19.087Z,84.49
2022-11-27T10:00:49.295Z,83.74
2022-11-27T10:03:25.285Z,84.44
2022-11-27T10:06:01.626Z,84.66
2022-11-27T10:08:36.590Z,84.60
2022-11-27T10:11:18.853Z,84.67
2022-11-27T10:14:11.945Z,85.42
2022-11-27T10:16:45.141Z,85.53
2022-11-27T10:19:28.374Z,84.82
2022-11-27T10:22:01.193Z,84.94
2022-11-27T10:24:39.218Z,85.03
2022-11-27T10:27:19.884Z,84.96
2022-11-27T10:29:54.909Z,84.44
2022-11-27T10:32:53.992Z,84.41
2022-11-27T10:35:20.650Z,83.87
2022-11-27T10:37:53.822Z,83.12
2022-11-27T10:40:28.352Z,82.35
2022-11-27T10:43:09.323Z,81.90
2022-11-27T10:45:50.362Z,81.63
2022-11-27T10:48:20.202Z,81.09
2022-11-27T10:50:50.075Z,80.62
2022-11-27T10:53:28.735Z,79.14
2022-11-27T10:56:15.096Z,79.33
2022-11-27T10:58:51.332Z,79.05
2022-11-27T11:01:24.267Z,78.68
2022-11-27T11:04:24.391Z,78.37
2022-11-27T11:06:55.092Z,78.01
2022-11-27T11:09:27.245Z,77.13
2022-11-27T11:12:07.500Z,77.93
2022-11-27T11:14:37.210Z,77.67
2022-11-27T11:17:18.969Z,77.52
2022-11-27T11:19:48.241Z,78.75
2022-11-27T11:22:18.637Z,77.49
2022-11-27T11:24:50.166Z,77.62
2022-11-27T11:27:24.576Z,77.95
2022-11-27T11:29:56.253Z,77.75
2022-11-27T11:32:29.942Z,76.61
2022-11-27T11:35:01.753Z,74.58
2022-11-27T11:37:33.479Z,73.50
2022-11-27T11:40:10.765Z,72.69
2022-11-27T11:42:54.372Z,72.08
2022-11-27T11:45:26.521Z,69.80
2022-11-27T11:48:02.914Z,68.11
2022-11-27T11:50:37.496Z,65.39
2022-11-27T11:53:16.582Z,66.87
2022-11-27T11:56:07.003Z,68.86
2022-11-27T11:58:50.183Z,70.26
2022-11-27T12:01:38.522Z,70.14
2022-11-27T12:04:40.088Z,70.85
2022-11-27T12:07:20.007Z,70.24
2022-11-27T12:09:58.626Z,70.07
2022-11-27T12:12:45.445Z,69.55
2022-11-27T12:15:23.628Z,68.13
2022-11-27T12:18:02.076Z,67.59
2022-11-27T12:20:48.010Z,68.39
2022-11-27T12:23:43.038Z,69.07
2022-11-27T12:26:23.651Z,69.54
2022-11-27T12:29:27.377Z,67.48
2022-11-27T12:32:42.466Z,64.40
2022-11-27T12:35:32.738Z,58.01
2022-11-27T12:38:25.722Z,52.51
2022-11-27T12:41:13.808Z,48.70
2022-11-27T12:43:48.047Z,44.86
2022-11-27T12:46:22.485Z,42.46
2022-11-27T12:48:57.280Z,41.84
2022-11-27T12:51:30.701Z,42.41
2022-11-27T12:54:07.340Z,42.32
2022-11-27T12:56:42.320Z,41.28
2022-11-27T12:59:20.116Z,48.76
2022-11-27T13:01:53.542Z,53.92
2022-11-27T13:04:27.575Z,56.78
2022-11-27T13:07:06.294Z,59.67
2022-11-27T13:09:46.383Z,61.88
2022-11-27T13:12:25.304Z,64.75
2022-11-27T13:15:01.551Z,66.45
2022-11-27T13:17:36.574Z,67.49
2022-11-27T13:20:14.682Z,67.66
2022-11-27T13:22:44.779Z,68.59
2022-11-27T13:25:16.044Z,70.30
2022-11-27T13:27:50.581Z,72.39
2022-11-27T13:30:24.109Z,72.60
2022-11-27T13:32:56.257Z,73.27
2022-11-27T13:35:30.134Z,73.96
2022-11-27T13:38:06.582Z,73.83
2022-11-27T13:40:42.279Z,75.80
2022-11-27T13:43:23.957Z,75.93
2022-11-27T13:46:01.614Z,76.61
2022-11-27T13:48:35.005Z,77.48
2022-11-27T13:51:07.013Z,77.65
2022-11-27T13:53:38.957Z,78.44
2022-11-27T13:56:11.990Z,78.55
2022-11-27T13:58:43.482Z,78.69
2022-11-27T14:01:18.621Z,78.71
2022-11-27T14:03:48.386Z,79.29
2022-11-27T14:06:22.123Z,80.18
2022-11-27T14:08:54.626Z,80.45
2022-11-27T14:11:36.498Z,80.36
2022-11-27T14:14:15.067Z,81.19
2022-11-27T14:16:53.662Z,81.33
2022-11-27T14:19:33.911Z,82.04
2022-11-27T14:22:14.682Z,82.50
2022-11-27T14:24:45.972Z,82.95
2022-11-27T14:27:21.686Z,83.29
2022-11-27T14:29:51.610Z,83.13
2022-11-27T14:32:22.160Z,82.97
2022-11-27T14:34:51.305Z,83.89
2022-11-27T14:37:25.854Z,84.30
2022-11-27T14:39:55.672Z,84.97
2022-11-27T14:42:30.086Z,85.01
2022-11-27T14:45:06.553Z,85.45
2022-11-27T14:47:36.669Z,85.36
2022-11-27T14:50:07.290Z,85.11
2022-11-27T14:52:37.043Z,85.76
2022-11-27T14:55:06.932Z,85.58
2022-11-27T14:57:37.879Z,86.01
2022-11-27T15:00:18.331Z,86.25
2022-11-27T15:02:49.745Z,86.43
2022-11-27T15:05:22.831Z,86.25
2022-11-27T15:07:54.977Z,86.83
2022-11-27T15:10:37.250Z,86.67
2022-11-27T15:13:21.080Z,86.38
2022-11-27T15:15:58.678Z,86.48
2022-11-27T15:18:30.848Z,86.43
2022-11-27T15:21:00.818Z,86.56
2022-11-27T15:23:32.178Z,86.65
2022-11-27T15:26:16.073Z,86.46
2022-11-27T15:28:55.269Z,86.35
2022-11-27T15:31:27.591Z,86.34
2022-11-27T15:33:59.496Z,86.38
2022-11-27T15:36:35.135Z,86.43
2022-11-27T15:39:19.233Z,86.50
2022-11-27T15:41:56.991Z,87.04
2022-11-27T15:44:29.495Z,86.92
2022-11-27T15:47:00.831Z,87.29
2022-11-27T15:49:31.080Z,87.25
2022-11-27T15:52:01.905Z,87.01
2022-11-27T15:54:31.478Z,87.19
2022-11-27T15:57:00.526Z,87.16
2022-11-27T15:59:31.346Z,87.34
2022-11-27T16:02:00.952Z,87.71
2022-11-27T16:04:30.875Z,87.84
2022-11-27T16:07:00.004Z,87.65
2022-11-27T16:09:29.704Z,87.66
2022-11-27T16:11:59.027Z,87.85
2022-11-27T16:14:28.444Z,88.02
2022-11-27T16:17:00.593Z,88.08
2022-11-27T16:19:30.187Z,88.41
2022-11-27T16:21:59.314Z,88.46
2022-11-27T16:24:28.739Z,88.68
2022-11-27T16:26:57.903Z,88.66
2022-11-27T16:29:27.307Z,88.55
2022-11-27T16:31:58.176Z,88.65
2022-11-27T16:34:27.752Z,88.68
2022-11-27T16:36:56.967Z,88.63
2022-11-27T16:39:26.307Z,88.71
2022-11-27T16:41:55.752Z,88.94
2022-11-27T16:44:25.403Z,89.47
2022-11-27T16:46:55.413Z,88.81
2022-11-27T16:49:26.240Z,89.06
2022-11-27T16:51:55.517Z,88.98
2022-11-27T16:54:24.915Z,88.93
2022-11-27T16:56:55.246Z,88.67
2022-11-27T16:59:24.626Z,88.72
2022-11-27T17:01:53.812Z,88.29
2022-11-27T17:04:23.881Z,88.60
2022-11-27T17:06:54.392Z,88.70
2022-11-27T17:09:26.021Z,88.66
2022-11-27T17:11:56.797Z,88.99
2022-11-27T17:14:28.706Z,89.16
2022-11-27T17:16:57.881Z,89.17
2022-11-27T17:19:30.001Z,89.84
2022-11-27T17:22:00.563Z,89.92
2022-11-27T17:24:30.134Z,89.90
2022-11-27T17:26:59.350Z,89.64
2022-11-27T17:29:35.166Z,89.67
2022-11-27T17:32:07.347Z,89.68
2022-11-27T17:34:36.959Z,89.68
2022-11-27T17:37:07.853Z,89.77
2022-11-27T17:39:37.304Z,89.92
2022-11-27T17:42:11.457Z,89.99
2022-11-27T17:44:42.826Z,90.09
2022-11-27T17:47:11.865Z,90.10
2022-11-27T17:49:41.977Z,89.79
2022-11-27T17:52:14.140Z,90.17
2022-11-27T17:54:44.672Z,90.18
2022-11-27T17:57:13.868Z,90.36
2022-11-27T17:59:44.015Z,90.36
2022-11-27T18:02:13.814Z,90.49
2022-11-27T18:04:45.058Z,90.51
2022-11-27T18:07:17.313Z,90.67
2022-11-27T18:09:47.641Z,90.56
2022-11-27T18:12:16.783Z,90.11
2022-11-27T18:14:46.153Z,89.85
2022-11-27T18:17:17.281Z,89.86
2022-11-27T18:19:46.797Z,89.21
2022-11-27T18:22:17.642Z,89.41
2022-11-27T18:24:47.247Z,89.55
2022-11-27T18:27:17.402Z,89.82
2022-11-27T18:29:47.255Z,89.58
2022-11-27T18:32:18.610Z,89.85
2022-11-27T18:34:48.298Z,89.80
2022-11-27T18:37:18.799Z,89.40
2022-11-27T18:39:48.268Z,89.64
2022-11-27T18:42:17.435Z,90.11
2022-11-27T18:44:47.757Z,90.05
2022-11-27T18:47:18.208Z,90.23
2022-11-27T18:49:49.625Z,90.08
2022-11-27T18:52:20.232Z,89.91
2022-11-27T18:54:49.685Z,89.49
2022-11-27T18:57:19.703Z,90.30
2022-11-27T18:59:50.230Z,90.03
2022-11-27T19:02:20.305Z,90.19
2022-11-27T19:04:50.315Z,90.11
2022-11-27T19:07:21.071Z,90.46
2022-11-27T19:09:50.597Z,90.50
2022-11-27T19:12:19.769Z,90.58
2022-11-27T19:14:49.603Z,90.74
2022-11-27T19:17:19.701Z,90.72
2022-11-27T19:19:54.153Z,90.75
2022-11-27T19:22:35.248Z,90.81
2022-11-27T19:25:04.835Z,90.92
2022-11-27T19:27:34.609Z,90.65
2022-11-27T19:30:04.811Z,90.45
2022-11-27T19:32:34.078Z,90.51
2022-11-27T19:35:07.186Z,90.02
2022-11-27T19:37:38.290Z,89.86
2022-11-27T19:40:09.384Z,89.47
2022-11-27T19:42:38.852Z,89.53
2022-11-27T19:45:09.235Z,89.66
2022-11-27T19:47:38.561Z,89.94
2022-11-27T19:50:10.070Z,89.68
2022-11-27T19:52:41.769Z,90.16
2022-11-27T19:55:11.842Z,90.02
2022-11-27T19:57:40.990Z,89.69
2022-11-27T20:00:12.462Z,89.82
2022-11-27T20:02:44.978Z,89.77
2022-11-27T20:05:14.647Z,90.21
2022-11-27T20:07:45.310Z,90.18
2022-11-27T20:10:15.607Z,89.78
2022-11-27T20:12:44.685Z,89.98
2022-11-27T20:15:16.852Z,89.86
2022-11-27T20:17:45.952Z,89.58
2022-11-27T20:20:16.937Z,89.30
2022-11-27T20:22:47.488Z,89.52
2022-11-27T20:25:19.832Z,89.61
2022-11-27T20:27:50.828Z,89.50
2022-11-27T20:30:21.444Z,89.64
2022-11-27T20:32:50.879Z,89.41
2022-11-27T20:35:20.235Z,89.44
2022-11-27T20:37:51.212Z,89.56
2022-11-27T20:40:23.605Z,90.02
2022-11-27T20:42:52.770Z,90.03
2022-11-27T20:45:22.270Z,89.94
2022-11-27T20:47:52.060Z,90.04
2022-11-27T20:50:21.913Z,90.30
2022-11-27T20:52:52.422Z,90.41
2022-11-27T20:55:21.716Z,90.19
2022-11-27T20:57:54.732Z,90.31
2022-11-27T21:00:25.450Z,90.55
2022-11-27T21:02:55.288Z,90.74
2022-11-27T21:05:24.773Z,90.74
2022-11-27T21:07:57.405Z,90.86
2022-11-27T21:10:26.954Z,90.66
2022-11-27T21:12:56.079Z,90.63
2022-11-27T21:15:25.540Z,90.44
2022-11-27T21:17:54.760Z,90.46
2022-11-27T21:20:24.109Z,90.59
2022-11-27T21:22:54.662Z,90.83
2022-11-27T21:25:25.798Z,90.04
2022-11-27T21:27:58.087Z,90.47
2022-11-27T21:30:28.216Z,90.88
2022-11-27T21:32:58.396Z,90.90
2022-11-27T21:35:31.722Z,90.83
2022-11-27T21:38:04.118Z,91.31
2022-11-27T21:40:33.510Z,91.23
2022-11-27T21:43:02.585Z,90.91
2022-11-27T21:45:31.972Z,91.25
2022-11-27T21:48:01.140Z,91.29
2022-11-27T21:50:30.573Z,91.17
2022-11-27T21:52:59.745Z,91.06
2022-11-27T21:55:30.675Z,91.06
2022-11-27T21:57:59.867Z,91.20
2022-11-27T22:00:29.337Z,91.28
2022-11-27T22:02:58.440Z,91.38
2022-11-27T22:05:27.999Z,91.42
2022-11-27T22:07:57.158Z,91.26
2022-11-27T22:10:26.609Z,91.21
2022-11-27T22:12:57.247Z,91.16
2022-11-27T22:15:26.644Z,91.46
2022-11-27T22:17:55.828Z,91.16
2022-11-27T22:20:25.521Z,91.10
2022-11-27T22:22:55.433Z,91.11
2022-11-27T22:25:25.308Z,91.06
2022-11-27T22:27:56.564Z,91.21
2022-11-27T22:30:26.221Z,91.02
2022-11-27T22:32:56.041Z,91.13
2022-11-27T22:35:26.541Z,91.06
2022-11-27T22:37:56.539Z,91.44
2022-11-27T22:40:26.201Z,91.27
2022-11-27T22:42:56.654Z,91.26
2022-11-27T22:45:26.117Z,91.36
2022-11-27T22:47:55.329Z,90.99
2022-11-27T22:50:24.869Z,90.69
2022-11-27T22:52:58.167Z,90.64
2022-11-27T22:55:28.202Z,91.45
2022-11-27T22:57:58.712Z,91.19
2022-11-27T23:00:28.163Z,91.43
2022-11-27T23:02:58.732Z,92.36
2022-11-27T23:05:28.312Z,91.64
2022-11-27T23:07:57.656Z,91.47
2022-11-27T23:10:27.698Z,92.22
2022-11-27T23:12:58.072Z,92.08
2022-11-27T23:15:27.458Z,92.34
2022-11-27T23:17:58.171Z,91.68
2022-11-27T23:20:27.862Z,91.58
2022-11-27T23:22:56.997Z,91.14
2022-11-27T23:25:26.412Z,91.54
2022-11-27T23:27:55.594Z,91.70
2022-11-27T23:30:26.251Z,92.18
2022-11-27T23:32:55.293Z,92.61
2022-11-27T23:35:24.780Z,92.32
2022-11-27T23:37:53.978Z,92.12
2022-11-27T23:40:23.358Z,92.35
2022-11-27T23:42:52.638Z,92.29
2022-11-27T23:45:22.043Z,92.70
2022-11-27T23:47:52.462Z,92.48
2022-11-27T23:50:21.825Z,100.00
2022-11-27T23:52:51.057Z,100.00
2022-11-27T23:55:20.679Z,100.00
2022-11-27T23:57:49.914Z,92.13
